Terminal Aerodrome Forecast
Issued by NWS Grand Forks, ND

Home | Current Version | Previous Version | Graphics & Text | Print | Product List | Glossary On
Versions: 1 2 3 4 5 6 7 8 9 10 11 12 13 14 15 16 17 18 19
000
FTUS43 KFGF 300500
TAFFAR
TAF
KFAR 300520Z 3006/0106 13009KT P6SM FEW020
     FM300900 12012KT P6SM BKN020
     FM301600 13014G20KT P6SM BKN025
     FM302000 13016G26KT P6SM VCSH BKN030=

USA.gov is the U.S. government's official web portal to all federal, state and local government web resources and services.